Terminal Aerodrome Forecast
Issued by NWS

Home | Current Version | Previous Version | Text Only | Print | Product List | Glossary On
Versions: 1 2 3 4 5 6 7 8 9 10 11 12 13 14
405
FTUS46 KSEW 300520
TAFPAE
TAF
KPAE 300520Z 3006/0106 02005KT P6SM SCT025 SCT045
     FM301100 VRB03KT P6SM BKN020 OVC030
     FM301900 VRB03KT P6SM SCT030 BKN045
     FM302100 35005KT P6SM SCT050=

USA.gov is the U.S. government's official web portal to all federal, state and local government web resources and services.